Terminal Aerodrome Forecast
Issued by NWS Shreveport, LA

Home | Current Version | Previous Version | Text Only | Print | Product List | Glossary On
Versions: 1 2 3 4 5 6 7 8 9 10 11 12 13 14
000
FTUS44 KSHV 251728
TAFELD
TAF
KELD 251728Z 2518/2618 VRB03KT P6SM VCTS SCT035CB SCT045
      TEMPO 2518/2522 -TSRA BKN035CB OVC070
     FM252200 VRB03KT P6SM -TSRA BKN030CB OVC250
     FM260000 10004KT P6SM OVC050
     FM261000 05003KT P6SM FEW020
      TEMPO 2611/2614 4SM BR
     FM261400 13004KT P6SM BKN040=

USA.gov is the U.S. government's official web portal to all federal, state and local government web resources and services.